»·PEaware :: UAL576 KASE-KJAC

UAL576 :: KASE-KJAC

FLIGHT INFORMATION

Flight Status: Arrived
Operator:
United Airlines
More flights by this operator :: More flights under this callsign
Pilot: Anonymous 8274 (8274)
Aircraft: BOEING 737-200
(B732)
More flights by this aircraft type
Origin: KASE Aspen-Pitkin Co/Sardy
United States
Destination: KJAC Jackson Hole
United States
More flights between these airports :: More routes between these airports
Route: +LINDZ8 ERK OCS V328 JAC
File this flight plan on PilotEdge
Remarks:
Altitude:
(Current/Filed)
28,000ft
Speed:
(Current/Filed)
460kts
Departed: 04-Jan-18 04:44 PM
Arrived: 04-Jan-18 05:57 PM
Distance/Time
Traveled:
315nm/1:12
Distance/Time
To Go:
Arrived

Flight Plot

Page will automatically refresh every two minutes.

Flight plan parsing failed; only flown route is shown


Map Options




Map Legend


Flown Route
Filed Route
Departure Airport
Arrival Airport
Navaid (VOR, NDB)
Fix

Horizontal Profiles

Position Reports

Time Latitude Longitude Heading Altitude Ground
Speed
04-Jan-18 16:32 39.218541 -106.864209 248 7782ft 0kts
04-Jan-18 16:33 39.218541 -106.864209 248 7782ft 0kts
04-Jan-18 16:34 39.218541 -106.864209 248 7782ft 0kts
04-Jan-18 16:35 39.218541 -106.864209 248 7782ft 0kts
04-Jan-18 16:36 39.218541 -106.864209 248 7782ft 0kts
04-Jan-18 16:37 39.218541 -106.864209 248 7782ft 0kts
04-Jan-18 16:38 39.218541 -106.864209 248 7782ft 0kts
04-Jan-18 16:39 39.218541 -106.864209 248 7782ft 0kts
04-Jan-18 16:40 39.218541 -106.864209 248 7782ft 0kts
04-Jan-18 16:41 39.218541 -106.864209 248 7782ft 0kts
04-Jan-18 16:42 39.218541 -106.864209 248 7782ft 0kts
04-Jan-18 16:43 39.218541 -106.864209 248 7782ft 0kts
04-Jan-18 16:44 39.218541 -106.864209 248 7782ft 0kts
04-Jan-18 16:45 39.218369 -106.865042 201 7782ft 10kts
04-Jan-18 16:46 39.214300 -106.863434 160 7782ft 20kts
04-Jan-18 16:47 39.212469 -106.862723 222 7782ft 0kts
04-Jan-18 16:48 39.212469 -106.862723 222 7782ft 0kts
04-Jan-18 16:49 39.212164 -106.863319 244 7782ft 7kts
04-Jan-18 16:50 39.216158 -106.865525 339 7782ft 85kts
04-Jan-18 16:51 39.254370 -106.878400 350 9019ft 162kts
04-Jan-18 16:52 39.282416 -106.920527 281 10390ft 220kts
04-Jan-18 16:53 39.297504 -107.013230 281 12232ft 303kts
04-Jan-18 16:54 39.347307 -107.104547 322 14750ft 342kts
04-Jan-18 16:55 39.401590 -107.202709 276 17932ft 347kts
04-Jan-18 16:56 39.360859 -107.316409 237 20331ft 366kts
04-Jan-18 16:57 39.327943 -107.440911 258 21525ft 372kts
04-Jan-18 16:58 39.305451 -107.571320 258 23466ft 370kts
04-Jan-18 16:59 39.278008 -107.697957 257 24593ft 383kts
04-Jan-18 17:00 39.303483 -107.818243 324 25786ft 374kts
04-Jan-18 17:01 39.399744 -107.812550 24 26739ft 402kts
04-Jan-18 17:02 39.497238 -107.743420 12 27621ft 403kts
04-Jan-18 17:03 39.604259 -107.745182 340 28307ft 397kts
04-Jan-18 17:04 39.706831 -107.785962 340 28294ft 407kts
04-Jan-18 17:05 39.816032 -107.826746 343 28265ft 412kts
04-Jan-18 17:06 39.926375 -107.862307 343 28263ft 414kts
04-Jan-18 17:07 40.029974 -107.917747 335 28260ft 412kts
04-Jan-18 17:08 40.127939 -107.979154 334 28269ft 412kts
04-Jan-18 17:09 40.231388 -108.042527 329 28267ft 413kts
04-Jan-18 17:10 40.332860 -108.113090 330 28265ft 414kts
04-Jan-18 17:11 40.434135 -108.182231 330 28291ft 414kts
04-Jan-18 17:12 40.536304 -108.251729 330 28290ft 415kts
04-Jan-18 17:13 40.638490 -108.321099 330 28289ft 415kts
04-Jan-18 17:14 40.741069 -108.390555 330 28288ft 415kts
04-Jan-18 17:15 40.843391 -108.459629 331 28287ft 415kts
04-Jan-18 17:16 40.946265 -108.528945 331 28286ft 415kts
04-Jan-18 17:17 41.043115 -108.609803 323 28234ft 414kts
04-Jan-18 17:18 41.129320 -108.691194 322 28241ft 413kts
04-Jan-18 17:19 41.225945 -108.771844 329 28240ft 416kts
04-Jan-18 17:20 41.330437 -108.838321 332 28239ft 417kts
04-Jan-18 17:21 41.435107 -108.904027 330 28239ft 416kts
04-Jan-18 17:22 41.537301 -108.974999 330 28237ft 416kts
04-Jan-18 17:23 41.639586 -109.045768 330 28236ft 416kts
04-Jan-18 17:24 41.732198 -109.131317 303 28248ft 410kts
04-Jan-18 17:25 41.802476 -109.249044 319 28242ft 412kts
04-Jan-18 17:26 41.893705 -109.341979 321 28234ft 415kts
04-Jan-18 17:27 41.983552 -109.438260 319 28233ft 415kts
04-Jan-18 17:28 42.071174 -109.538598 317 28231ft 416kts
04-Jan-18 17:29 42.153762 -109.634991 317 28235ft 416kts
04-Jan-18 17:30 42.240633 -109.734097 319 28241ft 418kts
04-Jan-18 17:31 42.332049 -109.830630 319 28242ft 419kts
04-Jan-18 17:32 42.416743 -109.921622 319 28248ft 419kts
04-Jan-18 17:33 42.504697 -110.022410 315 28254ft 418kts
04-Jan-18 17:34 42.592285 -110.123307 326 28224ft 421kts
04-Jan-18 17:35 42.701652 -110.180831 337 28262ft 425kts
04-Jan-18 17:36 42.806742 -110.247148 331 28235ft 422kts
04-Jan-18 17:37 42.906550 -110.313930 331 26255ft 397kts
04-Jan-18 17:38 43.002332 -110.378725 331 23659ft 382kts
04-Jan-18 17:39 43.095730 -110.438004 335 21113ft 371kts
04-Jan-18 17:40 43.187347 -110.486633 336 18707ft 360kts
04-Jan-18 17:41 43.278659 -110.535397 335 16314ft 350kts
04-Jan-18 17:42 43.364921 -110.587167 333 15969ft 334kts
04-Jan-18 17:43 43.446954 -110.641169 338 15970ft 326kts
04-Jan-18 17:44 43.528543 -110.684543 340 15991ft 320kts
04-Jan-18 17:45 43.610691 -110.717319 349 15946ft 293kts
04-Jan-18 17:46 43.681092 -110.681390 11 15774ft 260kts
04-Jan-18 17:47 43.751162 -110.669452 9 15153ft 238kts
04-Jan-18 17:48 43.813946 -110.644207 21 15171ft 237kts
04-Jan-18 17:49 43.874546 -110.610092 21 15171ft 235kts
04-Jan-18 17:50 43.934772 -110.576096 21 15172ft 235kts
04-Jan-18 17:51 43.995098 -110.582903 332 14133ft 235kts
04-Jan-18 17:52 44.051883 -110.586539 58 13086ft 218kts
04-Jan-18 17:53 44.023232 -110.533665 189 13088ft 224kts
04-Jan-18 17:54 43.964041 -110.559211 197 11630ft 227kts
04-Jan-18 17:55 43.904273 -110.589177 201 11388ft 228kts
04-Jan-18 17:56 43.847189 -110.621352 201 10865ft 214kts
04-Jan-18 17:57 43.797997 -110.646588 196 9639ft 166kts
04-Jan-18 17:58 43.750489 -110.666867 196 9656ft 175kts
04-Jan-18 17:59 43.711110 -110.686777 200 8818ft 147kts
04-Jan-18 18:00 43.673360 -110.705147 199 7818ft 142kts
04-Jan-18 18:01 43.636455 -110.723569 199 6923ft 138kts
04-Jan-18 18:02 43.604087 -110.739343 199 6429ft 68kts
04-Jan-18 18:03 43.600050 -110.739681 17 6429ft 7kts
04-Jan-18 18:04 43.603500 -110.738037 19 6429ft 7kts
04-Jan-18 18:05 43.603488 -110.737094 109 6429ft 0kts

Navigation Log

Ident Type
Flight plan parsing failed, navigation log unavailable